sensor_id;sensor_type;location;lat;lon;timestamp;P1;durP1;ratioP1;P2;durP2;ratioP2
55784;SDS011;41709;52.536;5.688;2022-12-17T00:02:00;44.70;;;22.45;;
55784;SDS011;41709;52.536;5.688;2022-12-17T00:04:44;46.03;;;23.65;;
55784;SDS011;41709;52.536;5.688;2022-12-17T00:07:28;46.10;;;23.63;;
55784;SDS011;41709;52.536;5.688;2022-12-17T00:10:12;47.60;;;23.75;;
55784;SDS011;41709;52.536;5.688;2022-12-17T00:13:01;44.53;;;23.70;;
55784;SDS011;41709;52.536;5.688;2022-12-17T00:15:51;52.25;;;24.63;;
55784;SDS011;41709;52.536;5.688;2022-12-17T00:18:36;48.58;;;24.30;;
55784;SDS011;41709;52.536;5.688;2022-12-17T00:21:20;47.63;;;23.40;;
55784;SDS011;41709;52.536;5.688;2022-12-17T00:24:04;48.22;;;24.40;;
55784;SDS011;41709;52.536;5.688;2022-12-17T00:26:48;46.65;;;22.90;;
55784;SDS011;41709;52.536;5.688;2022-12-17T00:29:32;46.45;;;23.55;;
55784;SDS011;41709;52.536;5.688;2022-12-17T00:32:17;44.88;;;21.75;;
55784;SDS011;41709;52.536;5.688;2022-12-17T00:35:01;52.95;;;25.88;;
55784;SDS011;41709;52.536;5.688;2022-12-17T00:37:46;47.90;;;24.63;;
55784;SDS011;41709;52.536;5.688;2022-12-17T00:40:30;48.42;;;23.40;;
55784;SDS011;41709;52.536;5.688;2022-12-17T00:43:15;49.97;;;24.23;;
55784;SDS011;41709;52.536;5.688;2022-12-17T00:45:59;45.05;;;23.55;;
55784;SDS011;41709;52.536;5.688;2022-12-17T00:48:43;52.00;;;25.10;;
55784;SDS011;41709;52.536;5.688;2022-12-17T00:51:30;53.67;;;25.42;;
55784;SDS011;41709;52.536;5.688;2022-12-17T00:54:14;49.50;;;23.98;;
55784;SDS011;41709;52.536;5.688;2022-12-17T00:57:01;45.53;;;22.52;;
55784;SDS011;41709;52.536;5.688;2022-12-17T00:59:46;48.00;;;23.88;;
55784;SDS011;41709;52.536;5.688;2022-12-17T01:02:30;51.05;;;24.80;;
55784;SDS011;41709;52.536;5.688;2022-12-17T01:05:14;49.47;;;24.58;;
55784;SDS011;41709;52.536;5.688;2022-12-17T01:08:08;53.72;;;26.30;;
55784;SDS011;41709;52.536;5.688;2022-12-17T01:11:01;54.40;;;26.30;;
55784;SDS011;41709;52.536;5.688;2022-12-17T01:13:46;53.00;;;24.80;;
55784;SDS011;41709;52.536;5.688;2022-12-17T01:16:31;53.80;;;24.90;;
55784;SDS011;41709;52.536;5.688;2022-12-17T01:19:15;59.78;;;27.10;;
55784;SDS011;41709;52.536;5.688;2022-12-17T01:22:00;53.05;;;24.95;;
55784;SDS011;41709;52.536;5.688;2022-12-17T01:24:44;50.30;;;24.23;;
55784;SDS011;41709;52.536;5.688;2022-12-17T01:27:28;54.45;;;25.40;;
55784;SDS011;41709;52.536;5.688;2022-12-17T01:30:12;54.22;;;25.92;;
55784;SDS011;41709;52.536;5.688;2022-12-17T01:33:00;57.47;;;25.50;;
55784;SDS011;41709;52.536;5.688;2022-12-17T01:35:57;56.47;;;26.23;;
55784;SDS011;41709;52.536;5.688;2022-12-17T01:38:42;59.88;;;26.85;;
55784;SDS011;41709;52.536;5.688;2022-12-17T01:41:26;54.33;;;25.98;;
55784;SDS011;41709;52.536;5.688;2022-12-17T01:47:38;54.35;;;27.13;;
55784;SDS011;41709;52.536;5.688;2022-12-17T01:50:38;54.30;;;25.98;;
55784;SDS011;41709;52.536;5.688;2022-12-17T01:53:26;55.25;;;27.77;;
55784;SDS011;41709;52.536;5.688;2022-12-17T01:59:00;55.60;;;27.50;;
55784;SDS011;41709;52.536;5.688;2022-12-17T02:01:46;60.65;;;26.73;;
55784;SDS011;41709;52.536;5.688;2022-12-17T02:04:32;53.10;;;25.75;;
55784;SDS011;41709;52.536;5.688;2022-12-17T02:11:10;51.25;;;26.15;;
55784;SDS011;41709;52.536;5.688;2022-12-17T02:17:10;48.85;;;25.35;;
55784;SDS011;41709;52.536;5.688;2022-12-17T02:23:21;48.22;;;24.70;;
55784;SDS011;41709;52.536;5.688;2022-12-17T02:26:14;52.67;;;25.17;;
55784;SDS011;41709;52.536;5.688;2022-12-17T02:29:03;49.38;;;25.38;;
55784;SDS011;41709;52.536;5.688;2022-12-17T02:31:51;47.88;;;24.33;;
55784;SDS011;41709;52.536;5.688;2022-12-17T02:34:43;54.58;;;24.98;;
55784;SDS011;41709;52.536;5.688;2022-12-17T02:37:48;45.92;;;23.80;;
55784;SDS011;41709;52.536;5.688;2022-12-17T02:40:33;55.10;;;25.65;;
55784;SDS011;41709;52.536;5.688;2022-12-17T02:43:22;51.55;;;24.48;;
55784;SDS011;41709;52.536;5.688;2022-12-17T02:46:08;50.80;;;26.10;;
55784;SDS011;41709;52.536;5.688;2022-12-17T02:48:52;45.55;;;23.83;;
55784;SDS011;41709;52.536;5.688;2022-12-17T02:51:38;48.95;;;25.58;;
55784;SDS011;41709;52.536;5.688;2022-12-17T02:54:31;49.67;;;24.85;;
55784;SDS011;41709;52.536;5.688;2022-12-17T02:57:17;46.47;;;25.00;;
55784;SDS011;41709;52.536;5.688;2022-12-17T03:00:04;49.38;;;24.48;;
55784;SDS011;41709;52.536;5.688;2022-12-17T03:02:49;47.03;;;23.58;;
55784;SDS011;41709;52.536;5.688;2022-12-17T03:05:33;47.50;;;24.77;;
55784;SDS011;41709;52.536;5.688;2022-12-17T03:08:18;50.85;;;25.20;;
55784;SDS011;41709;52.536;5.688;2022-12-17T03:11:02;51.55;;;25.13;;
55784;SDS011;41709;52.536;5.688;2022-12-17T03:13:46;53.58;;;24.70;;
55784;SDS011;41709;52.536;5.688;2022-12-17T03:16:30;47.78;;;23.67;;
55784;SDS011;41709;52.536;5.688;2022-12-17T03:19:14;47.47;;;23.33;;
55784;SDS011;41709;52.536;5.688;2022-12-17T03:21:58;50.40;;;24.40;;
55784;SDS011;41709;52.536;5.688;2022-12-17T03:24:42;51.40;;;24.13;;
55784;SDS011;41709;52.536;5.688;2022-12-17T03:27:27;50.92;;;23.92;;
55784;SDS011;41709;52.536;5.688;2022-12-17T03:30:11;51.22;;;26.15;;
55784;SDS011;41709;52.536;5.688;2022-12-17T03:32:55;48.03;;;24.15;;
55784;SDS011;41709;52.536;5.688;2022-12-17T03:35:40;44.72;;;23.67;;
55784;SDS011;41709;52.536;5.688;2022-12-17T03:38:24;53.70;;;25.13;;
55784;SDS011;41709;52.536;5.688;2022-12-17T03:41:08;47.78;;;25.45;;
55784;SDS011;41709;52.536;5.688;2022-12-17T03:43:52;45.65;;;24.30;;
55784;SDS011;41709;52.536;5.688;2022-12-17T03:46:36;51.08;;;25.15;;
55784;SDS011;41709;52.536;5.688;2022-12-17T03:49:20;45.33;;;24.08;;
55784;SDS011;41709;52.536;5.688;2022-12-17T03:52:04;50.75;;;24.27;;
55784;SDS011;41709;52.536;5.688;2022-12-17T03:54:48;49.10;;;25.27;;
55784;SDS011;41709;52.536;5.688;2022-12-17T03:57:32;48.33;;;24.50;;
55784;SDS011;41709;52.536;5.688;2022-12-17T04:00:16;41.88;;;22.17;;
55784;SDS011;41709;52.536;5.688;2022-12-17T04:03:01;45.72;;;23.95;;
55784;SDS011;41709;52.536;5.688;2022-12-17T04:05:45;49.58;;;24.60;;
55784;SDS011;41709;52.536;5.688;2022-12-17T04:08:29;51.47;;;25.08;;
55784;SDS011;41709;52.536;5.688;2022-12-17T04:11:13;44.42;;;23.23;;
55784;SDS011;41709;52.536;5.688;2022-12-17T04:13:57;47.92;;;24.20;;
55784;SDS011;41709;52.536;5.688;2022-12-17T04:16:41;49.67;;;24.65;;
55784;SDS011;41709;52.536;5.688;2022-12-17T04:19:25;45.03;;;22.95;;
55784;SDS011;41709;52.536;5.688;2022-12-17T04:22:09;50.63;;;25.70;;
55784;SDS011;41709;52.536;5.688;2022-12-17T04:24:53;45.42;;;24.58;;
55784;SDS011;41709;52.536;5.688;2022-12-17T04:27:45;44.65;;;23.85;;
55784;SDS011;41709;52.536;5.688;2022-12-17T04:30:29;50.50;;;25.02;;
55784;SDS011;41709;52.536;5.688;2022-12-17T04:33:13;49.08;;;23.98;;
55784;SDS011;41709;52.536;5.688;2022-12-17T04:35:57;48.03;;;25.27;;
55784;SDS011;41709;52.536;5.688;2022-12-17T04:38:41;44.22;;;23.35;;
55784;SDS011;41709;52.536;5.688;2022-12-17T04:41:26;47.90;;;23.98;;
55784;SDS011;41709;52.536;5.688;2022-12-17T04:44:10;46.13;;;23.80;;
55784;SDS011;41709;52.536;5.688;2022-12-17T04:46:54;47.50;;;24.42;;
55784;SDS011;41709;52.536;5.688;2022-12-17T04:49:40;48.55;;;24.58;;
55784;SDS011;41709;52.536;5.688;2022-12-17T04:52:24;46.47;;;24.90;;
55784;SDS011;41709;52.536;5.688;2022-12-17T04:55:08;46.88;;;23.45;;
55784;SDS011;41709;52.536;5.688;2022-12-17T04:57:52;45.28;;;24.00;;
55784;SDS011;41709;52.536;5.688;2022-12-17T05:00:36;50.17;;;24.52;;
55784;SDS011;41709;52.536;5.688;2022-12-17T05:03:20;46.17;;;23.60;;
55784;SDS011;41709;52.536;5.688;2022-12-17T05:06:05;47.17;;;24.23;;
55784;SDS011;41709;52.536;5.688;2022-12-17T05:08:51;47.03;;;23.75;;
55784;SDS011;41709;52.536;5.688;2022-12-17T05:11:35;48.60;;;24.73;;
55784;SDS011;41709;52.536;5.688;2022-12-17T05:14:19;53.85;;;26.55;;
55784;SDS011;41709;52.536;5.688;2022-12-17T05:17:03;53.15;;;27.10;;
55784;SDS011;41709;52.536;5.688;2022-12-17T05:19:49;49.72;;;25.42;;
55784;SDS011;41709;52.536;5.688;2022-12-17T05:22:34;51.63;;;26.83;;
55784;SDS011;41709;52.536;5.688;2022-12-17T05:25:18;46.00;;;24.95;;
55784;SDS011;41709;52.536;5.688;2022-12-17T05:28:02;46.17;;;25.42;;
55784;SDS011;41709;52.536;5.688;2022-12-17T05:30:50;48.92;;;26.35;;
55784;SDS011;41709;52.536;5.688;2022-12-17T05:33:35;50.88;;;25.83;;
55784;SDS011;41709;52.536;5.688;2022-12-17T05:36:20;52.08;;;27.02;;
55784;SDS011;41709;52.536;5.688;2022-12-17T05:39:04;49.58;;;26.15;;
55784;SDS011;41709;52.536;5.688;2022-12-17T05:41:48;50.92;;;25.77;;
55784;SDS011;41709;52.536;5.688;2022-12-17T05:44:32;47.55;;;26.05;;
55784;SDS011;41709;52.536;5.688;2022-12-17T05:47:16;47.42;;;25.58;;
55784;SDS011;41709;52.536;5.688;2022-12-17T05:50:00;51.78;;;28.40;;
55784;SDS011;41709;52.536;5.688;2022-12-17T05:52:45;57.13;;;28.08;;
55784;SDS011;41709;52.536;5.688;2022-12-17T05:55:30;50.03;;;26.50;;
55784;SDS011;41709;52.536;5.688;2022-12-17T05:58:15;48.78;;;26.35;;
55784;SDS011;41709;52.536;5.688;2022-12-17T06:01:00;46.53;;;25.65;;
55784;SDS011;41709;52.536;5.688;2022-12-17T06:03:46;48.85;;;26.65;;
55784;SDS011;41709;52.536;5.688;2022-12-17T06:06:30;47.83;;;25.90;;
55784;SDS011;41709;52.536;5.688;2022-12-17T06:09:14;50.15;;;26.92;;
55784;SDS011;41709;52.536;5.688;2022-12-17T06:11:59;47.97;;;25.88;;
55784;SDS011;41709;52.536;5.688;2022-12-17T06:14:44;46.95;;;25.33;;
55784;SDS011;41709;52.536;5.688;2022-12-17T06:17:31;52.13;;;27.27;;
55784;SDS011;41709;52.536;5.688;2022-12-17T06:20:15;51.75;;;26.92;;
55784;SDS011;41709;52.536;5.688;2022-12-17T06:23:00;49.47;;;27.52;;
55784;SDS011;41709;52.536;5.688;2022-12-17T06:25:50;51.88;;;27.08;;
55784;SDS011;41709;52.536;5.688;2022-12-17T06:28:35;51.72;;;28.05;;
55784;SDS011;41709;52.536;5.688;2022-12-17T06:31:19;52.22;;;27.02;;
55784;SDS011;41709;52.536;5.688;2022-12-17T06:34:04;51.22;;;27.73;;
55784;SDS011;41709;52.536;5.688;2022-12-17T06:36:48;49.50;;;26.67;;
55784;SDS011;41709;52.536;5.688;2022-12-17T06:39:32;53.33;;;27.90;;
55784;SDS011;41709;52.536;5.688;2022-12-17T06:42:16;50.88;;;27.45;;
55784;SDS011;41709;52.536;5.688;2022-12-17T06:45:00;56.25;;;28.20;;
55784;SDS011;41709;52.536;5.688;2022-12-17T06:47:44;52.60;;;28.25;;
55784;SDS011;41709;52.536;5.688;2022-12-17T06:50:28;57.10;;;28.60;;
55784;SDS011;41709;52.536;5.688;2022-12-17T06:53:12;55.33;;;30.33;;
55784;SDS011;41709;52.536;5.688;2022-12-17T06:55:57;55.95;;;28.17;;
55784;SDS011;41709;52.536;5.688;2022-12-17T06:58:42;54.15;;;27.20;;
55784;SDS011;41709;52.536;5.688;2022-12-17T07:01:27;54.05;;;28.33;;
55784;SDS011;41709;52.536;5.688;2022-12-17T07:04:11;60.28;;;29.80;;
55784;SDS011;41709;52.536;5.688;2022-12-17T07:06:57;57.15;;;28.88;;
55784;SDS011;41709;52.536;5.688;2022-12-17T07:09:41;59.95;;;29.38;;
55784;SDS011;41709;52.536;5.688;2022-12-17T07:12:25;51.92;;;28.77;;
55784;SDS011;41709;52.536;5.688;2022-12-17T07:15:10;59.47;;;28.33;;
55784;SDS011;41709;52.536;5.688;2022-12-17T07:18:01;57.20;;;28.85;;
55784;SDS011;41709;52.536;5.688;2022-12-17T07:20:47;55.40;;;28.13;;
55784;SDS011;41709;52.536;5.688;2022-12-17T07:23:31;57.88;;;28.50;;
55784;SDS011;41709;52.536;5.688;2022-12-17T07:26:15;57.53;;;27.95;;
55784;SDS011;41709;52.536;5.688;2022-12-17T07:29:00;59.67;;;29.50;;
55784;SDS011;41709;52.536;5.688;2022-12-17T07:31:44;59.13;;;29.33;;
55784;SDS011;41709;52.536;5.688;2022-12-17T07:34:28;59.47;;;29.67;;
55784;SDS011;41709;52.536;5.688;2022-12-17T07:37:12;61.53;;;29.60;;
55784;SDS011;41709;52.536;5.688;2022-12-17T07:40:00;54.00;;;28.80;;
55784;SDS011;41709;52.536;5.688;2022-12-17T07:42:44;60.03;;;30.58;;
55784;SDS011;41709;52.536;5.688;2022-12-17T07:45:28;56.97;;;29.08;;
55784;SDS011;41709;52.536;5.688;2022-12-17T07:48:12;59.85;;;30.58;;
55784;SDS011;41709;52.536;5.688;2022-12-17T07:50:59;60.42;;;29.13;;
55784;SDS011;41709;52.536;5.688;2022-12-17T07:53:44;54.85;;;29.60;;
55784;SDS011;41709;52.536;5.688;2022-12-17T07:56:28;57.60;;;28.65;;
55784;SDS011;41709;52.536;5.688;2022-12-17T07:59:12;64.82;;;29.95;;
55784;SDS011;41709;52.536;5.688;2022-12-17T08:01:56;56.05;;;28.10;;
55784;SDS011;41709;52.536;5.688;2022-12-17T08:04:40;55.65;;;27.58;;
55784;SDS011;41709;52.536;5.688;2022-12-17T08:07:24;55.70;;;28.70;;
55784;SDS011;41709;52.536;5.688;2022-12-17T08:10:08;51.42;;;27.73;;
55784;SDS011;41709;52.536;5.688;2022-12-17T08:13:01;56.45;;;28.73;;
55784;SDS011;41709;52.536;5.688;2022-12-17T08:15:48;59.97;;;29.08;;
55784;SDS011;41709;52.536;5.688;2022-12-17T08:18:34;56.03;;;27.67;;
55784;SDS011;41709;52.536;5.688;2022-12-17T08:21:18;54.90;;;28.10;;
55784;SDS011;41709;52.536;5.688;2022-12-17T08:24:03;61.92;;;29.38;;
55784;SDS011;41709;52.536;5.688;2022-12-17T08:26:48;60.45;;;29.70;;
55784;SDS011;41709;52.536;5.688;2022-12-17T08:29:32;53.72;;;27.73;;
55784;SDS011;41709;52.536;5.688;2022-12-17T08:32:16;55.10;;;27.90;;
55784;SDS011;41709;52.536;5.688;2022-12-17T08:35:00;56.08;;;28.17;;
55784;SDS011;41709;52.536;5.688;2022-12-17T08:37:44;59.65;;;29.63;;
55784;SDS011;41709;52.536;5.688;2022-12-17T08:40:28;58.53;;;29.52;;
55784;SDS011;41709;52.536;5.688;2022-12-17T08:43:15;54.85;;;28.13;;
55784;SDS011;41709;52.536;5.688;2022-12-17T08:45:59;56.28;;;28.50;;
55784;SDS011;41709;52.536;5.688;2022-12-17T08:48:43;58.60;;;29.48;;
55784;SDS011;41709;52.536;5.688;2022-12-17T08:51:27;57.38;;;28.42;;
55784;SDS011;41709;52.536;5.688;2022-12-17T08:54:11;63.95;;;32.22;;
55784;SDS011;41709;52.536;5.688;2022-12-17T08:56:55;62.70;;;29.17;;
55784;SDS011;41709;52.536;5.688;2022-12-17T08:59:40;62.45;;;31.85;;
55784;SDS011;41709;52.536;5.688;2022-12-17T09:02:24;61.25;;;31.17;;
55784;SDS011;41709;52.536;5.688;2022-12-17T09:05:08;65.55;;;31.58;;
55784;SDS011;41709;52.536;5.688;2022-12-17T09:08:03;60.40;;;29.67;;
55784;SDS011;41709;52.536;5.688;2022-12-17T09:10:49;63.00;;;31.42;;
55784;SDS011;41709;52.536;5.688;2022-12-17T09:13:34;61.17;;;31.67;;
55784;SDS011;41709;52.536;5.688;2022-12-17T09:16:18;60.63;;;29.77;;
55784;SDS011;41709;52.536;5.688;2022-12-17T09:19:02;64.50;;;30.77;;
55784;SDS011;41709;52.536;5.688;2022-12-17T09:21:47;62.47;;;30.98;;
55784;SDS011;41709;52.536;5.688;2022-12-17T09:24:32;63.67;;;30.98;;
55784;SDS011;41709;52.536;5.688;2022-12-17T09:27:16;59.38;;;31.23;;
55784;SDS011;41709;52.536;5.688;2022-12-17T09:30:01;62.97;;;33.05;;
55784;SDS011;41709;52.536;5.688;2022-12-17T09:32:45;65.13;;;31.30;;
55784;SDS011;41709;52.536;5.688;2022-12-17T09:35:29;60.47;;;29.15;;
55784;SDS011;41709;52.536;5.688;2022-12-17T09:38:14;61.40;;;30.70;;
55784;SDS011;41709;52.536;5.688;2022-12-17T09:40:59;62.38;;;30.35;;
55784;SDS011;41709;52.536;5.688;2022-12-17T09:43:51;65.35;;;31.50;;
55784;SDS011;41709;52.536;5.688;2022-12-17T09:46:53;63.75;;;31.27;;
55784;SDS011;41709;52.536;5.688;2022-12-17T09:52:42;66.25;;;31.63;;
55784;SDS011;41709;52.536;5.688;2022-12-17T09:58:20;65.10;;;32.17;;
55784;SDS011;41709;52.536;5.688;2022-12-17T10:01:16;59.13;;;30.83;;
55784;SDS011;41709;52.536;5.688;2022-12-17T10:04:03;67.32;;;31.90;;
55784;SDS011;41709;52.536;5.688;2022-12-17T10:06:49;61.70;;;31.42;;
55784;SDS011;41709;52.536;5.688;2022-12-17T10:09:33;65.63;;;32.35;;
55784;SDS011;41709;52.536;5.688;2022-12-17T10:12:21;64.70;;;31.30;;
55784;SDS011;41709;52.536;5.688;2022-12-17T10:15:05;62.03;;;31.52;;
55784;SDS011;41709;52.536;5.688;2022-12-17T10:17:50;67.75;;;32.15;;
55784;SDS011;41709;52.536;5.688;2022-12-17T10:23:30;65.45;;;32.78;;
55784;SDS011;41709;52.536;5.688;2022-12-17T10:26:21;62.83;;;31.45;;
55784;SDS011;41709;52.536;5.688;2022-12-17T10:29:15;63.80;;;31.27;;
55784;SDS011;41709;52.536;5.688;2022-12-17T10:32:23;67.28;;;32.67;;
55784;SDS011;41709;52.536;5.688;2022-12-17T10:38:11;65.68;;;32.88;;
55784;SDS011;41709;52.536;5.688;2022-12-17T10:41:03;73.28;;;34.47;;
55784;SDS011;41709;52.536;5.688;2022-12-17T10:43:47;69.07;;;33.33;;
55784;SDS011;41709;52.536;5.688;2022-12-17T10:46:32;72.95;;;33.05;;
55784;SDS011;41709;52.536;5.688;2022-12-17T10:49:18;72.93;;;34.85;;
55784;SDS011;41709;52.536;5.688;2022-12-17T10:55:02;64.25;;;33.22;;
55784;SDS011;41709;52.536;5.688;2022-12-17T10:57:48;68.60;;;33.97;;
55784;SDS011;41709;52.536;5.688;2022-12-17T11:00:40;66.82;;;32.55;;
55784;SDS011;41709;52.536;5.688;2022-12-17T11:06:40;70.47;;;33.70;;
55784;SDS011;41709;52.536;5.688;2022-12-17T11:12:33;71.53;;;33.58;;
55784;SDS011;41709;52.536;5.688;2022-12-17T11:15:24;79.40;;;35.45;;
55784;SDS011;41709;52.536;5.688;2022-12-17T11:18:19;76.28;;;34.55;;
55784;SDS011;41709;52.536;5.688;2022-12-17T11:21:15;79.60;;;35.03;;
55784;SDS011;41709;52.536;5.688;2022-12-17T11:24:04;72.85;;;34.78;;
55784;SDS011;41709;52.536;5.688;2022-12-17T11:26:54;71.65;;;35.15;;
55784;SDS011;41709;52.536;5.688;2022-12-17T11:29:41;70.72;;;33.33;;
55784;SDS011;41709;52.536;5.688;2022-12-17T11:32:35;78.75;;;35.70;;
55784;SDS011;41709;52.536;5.688;2022-12-17T11:35:35;72.90;;;34.67;;
55784;SDS011;41709;52.536;5.688;2022-12-17T11:41:58;70.07;;;33.03;;
55784;SDS011;41709;52.536;5.688;2022-12-17T11:47:45;78.40;;;36.85;;
55784;SDS011;41709;52.536;5.688;2022-12-17T11:50:46;74.15;;;33.92;;
55784;SDS011;41709;52.536;5.688;2022-12-17T11:56:44;73.97;;;34.83;;
55784;SDS011;41709;52.536;5.688;2022-12-17T11:59:35;74.35;;;34.75;;
55784;SDS011;41709;52.536;5.688;2022-12-17T12:03:29;77.30;;;36.38;;
55784;SDS011;41709;52.536;5.688;2022-12-17T12:05:54;80.65;;;34.28;;
55784;SDS011;41709;52.536;5.688;2022-12-17T12:30:14;76.03;;;35.30;;
55784;SDS011;41709;52.536;5.688;2022-12-17T12:35:52;69.70;;;35.10;;
55784;SDS011;41709;52.536;5.688;2022-12-17T12:38:42;72.20;;;33.28;;
55784;SDS011;41709;52.536;5.688;2022-12-17T12:44:27;76.45;;;34.83;;
55784;SDS011;41709;52.536;5.688;2022-12-17T12:47:31;76.20;;;35.75;;
55784;SDS011;41709;52.536;5.688;2022-12-17T12:53:55;68.15;;;33.63;;
55784;SDS011;41709;52.536;5.688;2022-12-17T12:56:52;67.35;;;32.65;;
55784;SDS011;41709;52.536;5.688;2022-12-17T12:59:36;72.57;;;34.13;;
55784;SDS011;41709;52.536;5.688;2022-12-17T13:02:30;67.05;;;34.03;;
55784;SDS011;41709;52.536;5.688;2022-12-17T13:05:24;63.03;;;32.60;;
55784;SDS011;41709;52.536;5.688;2022-12-17T13:10:33;61.28;;;32.97;;
55784;SDS011;41709;52.536;5.688;2022-12-17T13:13:10;67.05;;;33.08;;
55784;SDS011;41709;52.536;5.688;2022-12-17T13:15:45;63.28;;;33.30;;
55784;SDS011;41709;52.536;5.688;2022-12-17T13:18:32;66.28;;;31.75;;
55784;SDS011;41709;52.536;5.688;2022-12-17T13:21:05;68.78;;;32.88;;
55784;SDS011;41709;52.536;5.688;2022-12-17T13:23:51;73.47;;;32.95;;
55784;SDS011;41709;52.536;5.688;2022-12-17T13:26:24;66.95;;;33.10;;
55784;SDS011;41709;52.536;5.688;2022-12-17T13:31:30;66.43;;;31.88;;
55784;SDS011;41709;52.536;5.688;2022-12-17T13:37:14;61.05;;;31.98;;
55784;SDS011;41709;52.536;5.688;2022-12-17T13:43:13;62.63;;;31.70;;
55784;SDS011;41709;52.536;5.688;2022-12-17T13:45:41;67.15;;;31.77;;
55784;SDS011;41709;52.536;5.688;2022-12-17T13:48:15;60.97;;;30.10;;
55784;SDS011;41709;52.536;5.688;2022-12-17T13:51:02;59.55;;;29.65;;
55784;SDS011;41709;52.536;5.688;2022-12-17T13:53:29;63.00;;;32.33;;
55784;SDS011;41709;52.536;5.688;2022-12-17T13:55:59;64.10;;;31.90;;
55784;SDS011;41709;52.536;5.688;2022-12-17T13:58:26;66.72;;;31.70;;
55784;SDS011;41709;52.536;5.688;2022-12-17T14:01:07;62.63;;;31.42;;
55784;SDS011;41709;52.536;5.688;2022-12-17T14:03:36;63.38;;;30.42;;
55784;SDS011;41709;52.536;5.688;2022-12-17T14:06:03;62.50;;;31.42;;
55784;SDS011;41709;52.536;5.688;2022-12-17T14:08:34;60.33;;;29.88;;
55784;SDS011;41709;52.536;5.688;2022-12-17T14:11:06;64.72;;;31.85;;
55784;SDS011;41709;52.536;5.688;2022-12-17T14:13:50;63.72;;;33.00;;
55784;SDS011;41709;52.536;5.688;2022-12-17T14:16:18;66.45;;;33.15;;
55784;SDS011;41709;52.536;5.688;2022-12-17T14:18:48;62.67;;;31.38;;
55784;SDS011;41709;52.536;5.688;2022-12-17T14:21:17;60.67;;;31.48;;
55784;SDS011;41709;52.536;5.688;2022-12-17T14:23:44;62.95;;;31.30;;
55784;SDS011;41709;52.536;5.688;2022-12-17T14:26:12;56.28;;;29.63;;
55784;SDS011;41709;52.536;5.688;2022-12-17T14:28:46;59.78;;;30.02;;
55784;SDS011;41709;52.536;5.688;2022-12-17T14:33:58;59.22;;;30.02;;
55784;SDS011;41709;52.536;5.688;2022-12-17T14:36:29;58.00;;;30.13;;
55784;SDS011;41709;52.536;5.688;2022-12-17T14:38:56;57.22;;;29.15;;
55784;SDS011;41709;52.536;5.688;2022-12-17T14:41:24;57.33;;;28.75;;
55784;SDS011;41709;52.536;5.688;2022-12-17T14:44:27;60.63;;;29.77;;
55784;SDS011;41709;52.536;5.688;2022-12-17T14:49:55;59.03;;;29.60;;
55784;SDS011;41709;52.536;5.688;2022-12-17T14:55:23;62.93;;;31.23;;
55784;SDS011;41709;52.536;5.688;2022-12-17T15:00:39;61.22;;;31.63;;
55784;SDS011;41709;52.536;5.688;2022-12-17T15:03:14;70.25;;;34.97;;
55784;SDS011;41709;52.536;5.688;2022-12-17T15:05:43;60.65;;;30.83;;
55784;SDS011;41709;52.536;5.688;2022-12-17T15:08:15;64.93;;;31.83;;
55784;SDS011;41709;52.536;5.688;2022-12-17T15:10:44;64.25;;;30.77;;
55784;SDS011;41709;52.536;5.688;2022-12-17T15:13:09;65.10;;;31.17;;
55784;SDS011;41709;52.536;5.688;2022-12-17T15:15:36;62.13;;;30.13;;
55784;SDS011;41709;52.536;5.688;2022-12-17T15:18:01;60.67;;;30.92;;
55784;SDS011;41709;52.536;5.688;2022-12-17T15:20:30;60.05;;;30.77;;
55784;SDS011;41709;52.536;5.688;2022-12-17T15:22:56;66.97;;;31.77;;
55784;SDS011;41709;52.536;5.688;2022-12-17T15:25:22;64.47;;;31.65;;
55784;SDS011;41709;52.536;5.688;2022-12-17T15:27:48;63.58;;;29.55;;
55784;SDS011;41709;52.536;5.688;2022-12-17T15:30:14;60.58;;;30.70;;
55784;SDS011;41709;52.536;5.688;2022-12-17T15:32:41;62.88;;;30.52;;
55784;SDS011;41709;52.536;5.688;2022-12-17T15:35:07;60.35;;;30.00;;
55784;SDS011;41709;52.536;5.688;2022-12-17T15:37:34;63.17;;;32.28;;
55784;SDS011;41709;52.536;5.688;2022-12-17T15:40:00;59.50;;;30.60;;
55784;SDS011;41709;52.536;5.688;2022-12-17T15:42:26;67.45;;;31.02;;
55784;SDS011;41709;52.536;5.688;2022-12-17T15:45:10;64.07;;;31.98;;
55784;SDS011;41709;52.536;5.688;2022-12-17T15:47:36;65.88;;;32.38;;
55784;SDS011;41709;52.536;5.688;2022-12-17T15:50:02;63.08;;;31.80;;
55784;SDS011;41709;52.536;5.688;2022-12-17T15:52:29;69.45;;;32.38;;
55784;SDS011;41709;52.536;5.688;2022-12-17T15:54:54;64.00;;;31.88;;
55784;SDS011;41709;52.536;5.688;2022-12-17T15:57:20;69.13;;;34.38;;
55784;SDS011;41709;52.536;5.688;2022-12-17T15:59:46;65.78;;;31.88;;
55784;SDS011;41709;52.536;5.688;2022-12-17T16:02:12;65.93;;;32.63;;
55784;SDS011;41709;52.536;5.688;2022-12-17T16:04:37;63.95;;;31.30;;
55784;SDS011;41709;52.536;5.688;2022-12-17T16:07:03;70.95;;;32.38;;
55784;SDS011;41709;52.536;5.688;2022-12-17T16:09:29;65.10;;;32.05;;
55784;SDS011;41709;52.536;5.688;2022-12-17T16:11:55;67.25;;;32.63;;
55784;SDS011;41709;52.536;5.688;2022-12-17T16:14:21;67.18;;;32.85;;
55784;SDS011;41709;52.536;5.688;2022-12-17T16:16:48;68.30;;;31.55;;
55784;SDS011;41709;52.536;5.688;2022-12-17T16:19:14;66.28;;;32.10;;
55784;SDS011;41709;52.536;5.688;2022-12-17T16:21:39;67.72;;;34.40;;
55784;SDS011;41709;52.536;5.688;2022-12-17T16:24:05;72.75;;;33.97;;
55784;SDS011;41709;52.536;5.688;2022-12-17T16:26:31;71.57;;;33.80;;
55784;SDS011;41709;52.536;5.688;2022-12-17T16:29:00;66.68;;;33.38;;
55784;SDS011;41709;52.536;5.688;2022-12-17T16:31:26;69.07;;;32.90;;
55784;SDS011;41709;52.536;5.688;2022-12-17T16:33:51;66.85;;;31.25;;
55784;SDS011;41709;52.536;5.688;2022-12-17T16:36:17;67.03;;;32.28;;
55784;SDS011;41709;52.536;5.688;2022-12-17T16:38:49;65.82;;;31.77;;
55784;SDS011;41709;52.536;5.688;2022-12-17T16:41:20;74.97;;;33.92;;
55784;SDS011;41709;52.536;5.688;2022-12-17T16:43:46;72.15;;;32.40;;
55784;SDS011;41709;52.536;5.688;2022-12-17T16:48:53;69.05;;;33.75;;
55784;SDS011;41709;52.536;5.688;2022-12-17T16:51:20;70.80;;;33.17;;
55784;SDS011;41709;52.536;5.688;2022-12-17T16:53:47;70.28;;;32.42;;
55784;SDS011;41709;52.536;5.688;2022-12-17T16:56:14;67.15;;;31.92;;
55784;SDS011;41709;52.536;5.688;2022-12-17T16:58:41;69.63;;;32.28;;
55784;SDS011;41709;52.536;5.688;2022-12-17T17:01:07;63.60;;;31.13;;
55784;SDS011;41709;52.536;5.688;2022-12-17T17:03:32;66.28;;;31.48;;
55784;SDS011;41709;52.536;5.688;2022-12-17T17:05:59;67.82;;;33.00;;
55784;SDS011;41709;52.536;5.688;2022-12-17T17:08:25;71.50;;;32.22;;
55784;SDS011;41709;52.536;5.688;2022-12-17T17:10:50;68.40;;;31.73;;
55784;SDS011;41709;52.536;5.688;2022-12-17T17:13:16;74.88;;;33.28;;
55784;SDS011;41709;52.536;5.688;2022-12-17T17:15:42;65.10;;;30.42;;
55784;SDS011;41709;52.536;5.688;2022-12-17T17:18:07;66.28;;;32.60;;
55784;SDS011;41709;52.536;5.688;2022-12-17T17:20:33;70.43;;;32.30;;
55784;SDS011;41709;52.536;5.688;2022-12-17T17:22:58;70.63;;;33.25;;
55784;SDS011;41709;52.536;5.688;2022-12-17T17:25:24;72.60;;;34.35;;
55784;SDS011;41709;52.536;5.688;2022-12-17T17:27:50;71.90;;;33.72;;
55784;SDS011;41709;52.536;5.688;2022-12-17T17:30:15;69.75;;;32.13;;